createdAt,value
2023-01-28T00:01:16.776Z,0.82
2023-01-28T00:04:18.379Z,1.02
2023-01-28T00:07:20.343Z,0.73
2023-01-28T00:10:21.778Z,0.79
2023-01-28T00:13:23.279Z,0.70
2023-01-28T00:16:27.196Z,0.83
2023-01-28T00:19:28.720Z,0.92
2023-01-28T00:22:30.247Z,0.75
2023-01-28T00:25:31.721Z,0.49
2023-01-28T00:28:33.274Z,0.94
2023-01-28T00:31:35.346Z,0.94
2023-01-28T00:34:36.882Z,0.85
2023-01-28T00:37:38.384Z,0.94
2023-01-28T00:40:39.808Z,0.73
2023-01-28T00:43:41.825Z,0.90
2023-01-28T00:46:43.275Z,1.12
2023-01-28T00:49:44.730Z,0.99
2023-01-28T00:52:46.216Z,0.92
2023-01-28T00:55:47.694Z,1.09
2023-01-28T00:58:49.146Z,1.06
2023-01-28T01:01:50.717Z,1.32
2023-01-28T01:05:01.183Z,1.32
2023-01-28T01:08:02.856Z,0.98
2023-01-28T01:11:04.816Z,0.72
2023-01-28T01:14:07.119Z,0.89
2023-01-28T01:17:08.700Z,0.86
2023-01-28T01:20:14.571Z,0.58
2023-01-28T01:23:16.059Z,0.59
2023-01-28T01:26:17.593Z,0.86
2023-01-28T01:29:19.069Z,1.03
2023-01-28T01:32:22.232Z,1.05
2023-01-28T01:35:23.657Z,1.13
2023-01-28T01:38:25.348Z,1.06
2023-01-28T01:41:28.907Z,1.21
2023-01-28T01:44:59.731Z,0.97
2023-01-28T01:48:06.449Z,0.82
2023-01-28T01:51:09.731Z,0.62
2023-01-28T01:54:11.166Z,0.85
2023-01-28T01:57:15.559Z,1.09
2023-01-28T02:00:17.475Z,0.92
2023-01-28T02:03:21.532Z,0.66
2023-01-28T02:06:23.114Z,0.60
2023-01-28T02:09:32.391Z,0.90
2023-01-28T02:12:37.570Z,0.69
2023-01-28T02:15:39.010Z,0.72
2023-01-28T02:18:40.482Z,1.05
2023-01-28T02:22:19.539Z,0.97
2023-01-28T02:25:29.963Z,0.87
2023-01-28T02:28:37.339Z,0.93
2023-01-28T02:31:50.419Z,0.93
2023-01-28T02:35:13.411Z,0.78
2023-01-28T02:38:22.539Z,0.78
2023-01-28T02:41:28.868Z,0.85
2023-01-28T02:44:30.319Z,0.98
2023-01-28T02:47:49.983Z,0.97
2023-01-28T02:50:59.270Z,1.15
2023-01-28T02:54:08.241Z,0.97
2023-01-28T02:57:28.561Z,0.60
2023-01-28T03:00:51.331Z,0.66
2023-01-28T03:04:07.588Z,0.98
2023-01-28T03:07:09.240Z,1.03
2023-01-28T03:10:13.607Z,0.92
2023-01-28T03:13:35.070Z,1.03
2023-01-28T03:16:54.998Z,0.94
2023-01-28T03:20:15.177Z,0.89
2023-01-28T03:23:37.383Z,0.85
2023-01-28T03:27:02.443Z,0.59
2023-01-28T03:30:45.227Z,1.14
2023-01-28T03:34:05.186Z,1.03
2023-01-28T03:37:08.831Z,0.54
2023-01-28T03:40:11.537Z,1.12
2023-01-28T03:43:12.882Z,0.87
2023-01-28T03:46:14.496Z,0.54
2023-01-28T03:49:16.829Z,0.40
2023-01-28T03:52:21.278Z,0.80
2023-01-28T03:55:25.721Z,0.61
2023-01-28T03:58:46.557Z,0.97
2023-01-28T04:01:50.678Z,0.85
2023-01-28T04:04:52.324Z,0.93
2023-01-28T04:07:56.835Z,1.10
2023-01-28T04:10:58.399Z,0.87
2023-01-28T04:13:59.874Z,0.81
2023-01-28T04:17:01.379Z,0.98
2023-01-28T04:20:02.805Z,0.82
2023-01-28T04:23:04.702Z,0.78
2023-01-28T04:26:06.174Z,0.80
2023-01-28T04:29:07.636Z,0.83
2023-01-28T04:32:11.521Z,0.74
2023-01-28T04:35:13.541Z,0.86
2023-01-28T04:38:15.173Z,1.16
2023-01-28T04:41:16.608Z,1.07
2023-01-28T04:44:18.160Z,0.95
2023-01-28T04:47:19.949Z,1.07
2023-01-28T04:50:21.373Z,0.96
2023-01-28T04:53:22.837Z,1.00
2023-01-28T04:56:24.336Z,1.11
2023-01-28T04:59:25.843Z,0.80
2023-01-28T05:02:27.333Z,0.88
2023-01-28T05:05:28.813Z,0.64
2023-01-28T05:08:30.285Z,0.77
2023-01-28T05:11:31.761Z,0.74
2023-01-28T05:14:33.208Z,0.95
2023-01-28T05:17:34.684Z,1.07
2023-01-28T05:20:36.185Z,1.06
2023-01-28T05:23:37.695Z,1.10
2023-01-28T05:26:39.170Z,1.04
2023-01-28T05:29:40.641Z,0.72
2023-01-28T05:32:42.103Z,0.73
2023-01-28T05:35:43.686Z,0.78
2023-01-28T05:38:45.177Z,1.42
2023-01-28T05:41:46.604Z,1.73
2023-01-28T05:44:48.219Z,1.32
2023-01-28T05:47:49.713Z,1.23
2023-01-28T05:50:51.200Z,1.28
2023-01-28T05:53:52.688Z,1.56
2023-01-28T05:56:54.155Z,1.77
2023-01-28T05:59:55.601Z,1.41
2023-01-28T06:02:57.094Z,1.38
2023-01-28T06:05:58.565Z,1.34
2023-01-28T06:09:00.058Z,0.84
2023-01-28T06:12:01.526Z,0.95
2023-01-28T06:15:03.036Z,0.90
2023-01-28T06:18:04.655Z,0.71
2023-01-28T06:21:06.102Z,1.05
2023-01-28T06:24:07.793Z,1.04
2023-01-28T06:27:09.358Z,1.32
2023-01-28T06:30:11.165Z,1.20
2023-01-28T06:33:12.634Z,1.13
2023-01-28T06:36:14.117Z,1.52
2023-01-28T06:39:15.621Z,1.32
2023-01-28T06:42:17.148Z,0.98
2023-01-28T06:45:18.618Z,0.89
2023-01-28T06:48:20.552Z,1.40
2023-01-28T06:51:22.011Z,1.46
2023-01-28T06:54:23.452Z,1.63
2023-01-28T06:57:24.893Z,1.43
2023-01-28T07:00:26.416Z,1.36
2023-01-28T07:03:27.914Z,0.91
2023-01-28T07:06:29.409Z,1.28
2023-01-28T07:09:30.925Z,1.16
2023-01-28T07:12:32.409Z,1.19
2023-01-28T07:15:33.869Z,1.40
2023-01-28T07:18:35.365Z,1.35
2023-01-28T07:21:36.847Z,0.95
2023-01-28T07:24:38.379Z,1.19
2023-01-28T07:27:39.874Z,1.33
2023-01-28T07:30:41.462Z,1.22
2023-01-28T07:33:42.975Z,0.77
2023-01-28T07:36:44.425Z,0.64
2023-01-28T07:39:45.899Z,0.84
2023-01-28T07:42:47.436Z,1.24
2023-01-28T07:45:48.970Z,1.27
2023-01-28T07:48:50.445Z,1.12
2023-01-28T07:51:51.870Z,1.26
2023-01-28T07:54:53.367Z,1.36
2023-01-28T07:57:56.745Z,1.27
2023-01-28T08:00:59.134Z,1.36
2023-01-28T08:04:00.819Z,1.37
2023-01-28T08:07:02.647Z,1.40
2023-01-28T08:10:04.321Z,1.43
2023-01-28T08:13:05.895Z,2.10
2023-01-28T08:16:07.467Z,1.86
2023-01-28T08:19:08.957Z,1.94
2023-01-28T08:22:10.403Z,1.40
2023-01-28T08:25:11.894Z,1.83
2023-01-28T08:28:13.894Z,1.86
2023-01-28T08:31:15.440Z,1.32
2023-01-28T08:34:16.968Z,1.36
2023-01-28T08:37:18.415Z,1.56
2023-01-28T08:40:20.113Z,1.62
2023-01-28T08:43:21.752Z,1.55
2023-01-28T08:46:23.272Z,1.90
2023-01-28T08:49:24.988Z,2.12
2023-01-28T08:52:26.465Z,1.92
2023-01-28T08:55:27.960Z,2.09
2023-01-28T08:58:29.426Z,2.05
2023-01-28T09:01:30.920Z,2.23
2023-01-28T09:04:32.482Z,1.81
2023-01-28T09:07:37.460Z,1.95
2023-01-28T09:10:39.034Z,2.59
2023-01-28T09:13:40.663Z,2.40
2023-01-28T09:16:42.118Z,2.15
2023-01-28T09:19:43.582Z,2.11
2023-01-28T09:22:45.101Z,1.91
2023-01-28T09:25:46.618Z,1.97
2023-01-28T09:28:48.165Z,1.96
2023-01-28T09:31:49.669Z,2.06
2023-01-28T09:34:51.282Z,2.29
2023-01-28T09:37:56.787Z,1.82
2023-01-28T09:40:58.301Z,2.05
2023-01-28T09:44:29.130Z,2.20
2023-01-28T09:47:46.937Z,2.70
2023-01-28T09:50:52.635Z,2.45
2023-01-28T09:53:54.076Z,2.32
2023-01-28T09:57:07.012Z,2.05
2023-01-28T10:00:17.184Z,1.84
2023-01-28T10:03:39.988Z,2.07
2023-01-28T10:07:13.722Z,2.36
2023-01-28T10:10:17.962Z,2.22
2023-01-28T10:13:31.441Z,2.21
2023-01-28T10:16:50.651Z,2.23
2023-01-28T10:19:55.275Z,1.77
2023-01-28T10:23:16.479Z,2.08
2023-01-28T10:26:26.199Z,1.86
2023-01-28T10:29:30.045Z,2.17
2023-01-28T10:32:34.296Z,2.02
2023-01-28T10:35:39.943Z,2.05
2023-01-28T10:38:41.615Z,2.16
2023-01-28T10:41:56.585Z,2.20
2023-01-28T10:45:05.940Z,2.15
2023-01-28T10:48:08.599Z,2.34
2023-01-28T10:51:09.975Z,2.35
2023-01-28T10:54:22.715Z,2.64
2023-01-28T10:57:24.204Z,2.74
2023-01-28T11:00:34.381Z,2.62
2023-01-28T11:03:52.413Z,2.40
2023-01-28T11:07:00.472Z,2.46
2023-01-28T11:10:01.928Z,2.55
2023-01-28T11:13:06.143Z,2.42
2023-01-28T11:16:17.417Z,2.29
2023-01-28T11:19:20.517Z,2.54
2023-01-28T11:22:36.019Z,2.75
2023-01-28T11:25:37.514Z,2.79
2023-01-28T11:28:41.259Z,2.61
2023-01-28T11:31:43.318Z,2.56
2023-01-28T11:34:51.930Z,2.30
2023-01-28T11:37:53.445Z,2.16
2023-01-28T11:40:56.565Z,1.92
2023-01-28T11:43:58.784Z,1.97
2023-01-28T11:47:27.642Z,1.73
2023-01-28T11:50:41.902Z,1.92
2023-01-28T11:53:58.644Z,2.05
2023-01-28T11:57:06.961Z,2.21
2023-01-28T12:00:20.181Z,2.35
2023-01-28T12:03:38.299Z,2.34
2023-01-28T12:07:10.817Z,2.68
2023-01-28T12:10:21.981Z,2.35
2023-01-28T12:13:32.641Z,2.20
2023-01-28T12:16:55.685Z,2.34
2023-01-28T12:20:16.318Z,2.07
2023-01-28T12:23:34.551Z,2.28
2023-01-28T12:26:52.744Z,2.39
2023-01-28T12:29:54.069Z,1.83
2023-01-28T12:33:24.540Z,2.25
2023-01-28T12:36:28.889Z,2.14
2023-01-28T12:39:53.011Z,2.21
2023-01-28T12:42:57.446Z,2.25
2023-01-28T12:46:02.676Z,1.90
2023-01-28T12:49:10.384Z,2.33
2023-01-28T12:52:24.795Z,2.42
2023-01-28T12:55:38.477Z,2.23
2023-01-28T12:58:47.011Z,2.15
2023-01-28T13:01:53.524Z,2.02
2023-01-28T13:05:14.369Z,2.26
2023-01-28T13:08:26.275Z,2.89
2023-01-28T13:11:33.166Z,2.47
2023-01-28T13:14:34.664Z,2.30
2023-01-28T13:17:36.109Z,2.13
2023-01-28T13:20:55.565Z,1.98
2023-01-28T13:24:09.533Z,2.05
2023-01-28T13:27:13.029Z,2.15
2023-01-28T13:30:31.623Z,2.12
2023-01-28T13:33:35.210Z,2.11
2023-01-28T13:36:44.216Z,2.39
2023-01-28T13:39:50.732Z,2.62
2023-01-28T13:43:06.417Z,2.56
2023-01-28T13:46:12.777Z,2.54
2023-01-28T13:49:20.163Z,1.90
2023-01-28T13:52:28.191Z,2.05
2023-01-28T13:55:44.821Z,2.34
2023-01-28T13:59:02.198Z,2.38
2023-01-28T14:02:34.089Z,2.16
2023-01-28T14:06:03.888Z,2.38
2023-01-28T14:09:59.686Z,2.44
2023-01-28T14:13:19.288Z,2.61
2023-01-28T14:16:26.685Z,2.57
2023-01-28T14:19:33.098Z,2.23
2023-01-28T14:22:34.547Z,2.31
2023-01-28T14:26:03.747Z,2.45
2023-01-28T14:29:16.593Z,2.28
2023-01-28T14:32:19.084Z,2.60
2023-01-28T14:35:31.544Z,2.61
2023-01-28T14:38:34.458Z,2.50
2023-01-28T14:41:35.957Z,2.51
2023-01-28T14:44:39.469Z,2.51
2023-01-28T14:48:05.699Z,2.30
2023-01-28T14:51:15.149Z,2.52
2023-01-28T14:54:35.283Z,1.95
2023-01-28T14:57:41.611Z,1.92
2023-01-28T15:00:55.363Z,1.89
2023-01-28T15:03:56.969Z,2.12
2023-01-28T15:07:02.355Z,2.07
2023-01-28T15:10:08.043Z,2.46
2023-01-28T15:13:16.873Z,2.18
2023-01-28T15:16:20.871Z,1.99
2023-01-28T15:19:32.393Z,2.27
2023-01-28T15:22:33.925Z,2.08
2023-01-28T15:25:35.461Z,2.02
2023-01-28T15:28:37.624Z,2.05
2023-01-28T15:31:39.873Z,1.94
2023-01-28T15:34:45.737Z,2.13
2023-01-28T15:41:02.590Z,2.31
2023-01-28T15:44:04.250Z,2.52
2023-01-28T15:47:26.718Z,1.97
2023-01-28T15:50:28.194Z,2.12
2023-01-28T15:53:32.337Z,2.26
2023-01-28T15:56:33.903Z,2.19
2023-01-28T15:59:35.425Z,2.23
2023-01-28T16:02:43.655Z,2.55
2023-01-28T16:05:55.014Z,2.29
2023-01-28T16:09:01.180Z,2.33
2023-01-28T16:12:13.117Z,1.97
2023-01-28T16:15:18.455Z,2.12
2023-01-28T16:18:29.344Z,2.01
2023-01-28T16:21:34.458Z,2.06
2023-01-28T16:24:38.908Z,2.42
2023-01-28T16:27:40.503Z,2.11
2023-01-28T16:30:42.078Z,2.25
2023-01-28T16:33:43.635Z,2.09
2023-01-28T16:36:45.197Z,2.08
2023-01-28T16:39:46.810Z,1.80
2023-01-28T16:42:51.100Z,1.68
2023-01-28T16:45:52.619Z,1.99
2023-01-28T16:48:54.223Z,1.75
2023-01-28T16:51:55.723Z,1.67
2023-01-28T16:54:57.182Z,1.66
2023-01-28T16:57:58.745Z,1.74
2023-01-28T17:01:00.232Z,1.83
2023-01-28T17:04:03.712Z,2.05
2023-01-28T17:07:05.309Z,2.05
2023-01-28T17:10:07.204Z,1.84
2023-01-28T17:13:08.646Z,1.72
2023-01-28T17:16:10.194Z,2.19
2023-01-28T17:19:12.750Z,2.41
2023-01-28T17:22:14.266Z,2.71
2023-01-28T17:25:16.082Z,1.94
2023-01-28T17:28:17.843Z,1.76
2023-01-28T17:31:19.433Z,1.84
2023-01-28T17:34:20.987Z,1.99
2023-01-28T17:37:22.441Z,1.97
2023-01-28T17:40:24.069Z,2.02
2023-01-28T17:43:25.579Z,1.81
2023-01-28T17:46:27.070Z,2.01
2023-01-28T17:49:28.620Z,1.69
2023-01-28T17:52:30.397Z,1.71
2023-01-28T17:55:34.840Z,1.63
2023-01-28T17:58:36.347Z,1.55
2023-01-28T18:01:37.850Z,2.05
2023-01-28T18:04:40.049Z,2.15
2023-01-28T18:07:41.596Z,2.30
2023-01-28T18:10:43.327Z,1.76
2023-01-28T18:13:44.862Z,1.79
2023-01-28T18:16:46.349Z,2.12
2023-01-28T18:19:47.871Z,1.69
2023-01-28T18:22:49.346Z,1.57
2023-01-28T18:25:50.785Z,1.63
2023-01-28T18:28:52.459Z,1.74
2023-01-28T18:31:55.154Z,1.65
2023-01-28T18:34:56.815Z,1.53
2023-01-28T18:38:02.629Z,1.73
2023-01-28T18:41:04.230Z,1.78
2023-01-28T18:44:06.157Z,2.37
2023-01-28T18:47:07.668Z,1.96
2023-01-28T18:50:09.577Z,1.71
2023-01-28T18:53:11.097Z,1.82
2023-01-28T18:56:12.540Z,1.94
2023-01-28T18:59:14.346Z,2.03
2023-01-28T19:02:16.223Z,2.13
2023-01-28T19:05:18.153Z,1.86
2023-01-28T19:08:19.700Z,1.91
2023-01-28T19:11:22.075Z,1.71
2023-01-28T19:14:23.626Z,1.93
2023-01-28T19:17:25.073Z,1.72
2023-01-28T19:20:26.544Z,1.62
2023-01-28T19:23:33.014Z,1.71
2023-01-28T19:26:39.423Z,1.78
2023-01-28T19:29:40.903Z,1.48
2023-01-28T19:32:42.389Z,1.50
2023-01-28T19:35:45.716Z,2.31
2023-01-28T19:38:47.171Z,2.32
2023-01-28T19:41:48.605Z,1.71
2023-01-28T19:44:50.991Z,2.04
2023-01-28T19:47:52.800Z,1.78
2023-01-28T19:50:54.337Z,1.90
2023-01-28T19:53:55.897Z,2.41
2023-01-28T19:56:57.419Z,2.35
2023-01-28T19:59:58.905Z,2.40
2023-01-28T20:03:00.364Z,2.54
2023-01-28T20:06:06.121Z,1.93
2023-01-28T20:09:10.583Z,1.98
2023-01-28T20:12:14.810Z,2.04
2023-01-28T20:15:16.763Z,1.62
2023-01-28T20:18:18.445Z,2.24
2023-01-28T20:21:20.095Z,2.49
2023-01-28T20:24:21.594Z,2.54
2023-01-28T20:27:24.574Z,2.58
2023-01-28T20:30:26.963Z,2.44
2023-01-28T20:33:28.459Z,2.41
2023-01-28T20:36:30.142Z,1.63
2023-01-28T20:39:31.722Z,2.36
2023-01-28T20:42:33.177Z,1.85
2023-01-28T20:45:34.868Z,2.12
2023-01-28T20:48:36.464Z,1.90
2023-01-28T20:51:39.308Z,1.43
2023-01-28T20:54:41.125Z,1.26
2023-01-28T20:57:44.671Z,1.48
2023-01-28T21:00:46.746Z,1.51
2023-01-28T21:03:48.517Z,1.17
2023-01-28T21:06:50.198Z,1.29
2023-01-28T21:09:51.713Z,1.52
2023-01-28T21:12:53.441Z,1.60
2023-01-28T21:15:55.605Z,1.63
2023-01-28T21:18:57.058Z,1.44
2023-01-28T21:22:02.674Z,1.41
2023-01-28T21:25:05.593Z,1.59
2023-01-28T21:28:07.135Z,1.50
2023-01-28T21:31:10.340Z,1.32
2023-01-28T21:34:12.043Z,1.51
2023-01-28T21:37:13.662Z,1.56
2023-01-28T21:40:16.203Z,1.52
2023-01-28T21:43:17.769Z,1.30
2023-01-28T21:46:29.543Z,2.15
2023-01-28T21:49:31.092Z,2.23
2023-01-28T21:52:32.634Z,2.13
2023-01-28T21:55:34.219Z,1.55
2023-01-28T21:58:54.887Z,1.41
2023-01-28T22:02:04.323Z,1.22
2023-01-28T22:05:06.363Z,1.22
2023-01-28T22:08:08.136Z,1.24
2023-01-28T22:11:09.744Z,1.25
2023-01-28T22:14:11.750Z,0.97
2023-01-28T22:17:13.387Z,1.14
2023-01-28T22:20:15.350Z,1.22
2023-01-28T22:23:17.165Z,1.10
2023-01-28T22:26:20.039Z,1.06
2023-01-28T22:29:23.105Z,1.04
2023-01-28T22:32:25.480Z,1.16
2023-01-28T22:35:27.979Z,1.07
2023-01-28T22:38:31.102Z,1.59
2023-01-28T22:41:33.604Z,2.02
2023-01-28T22:44:37.555Z,1.79
2023-01-28T22:47:39.322Z,1.68
2023-01-28T22:50:43.075Z,1.96
2023-01-28T22:53:46.297Z,1.62
2023-01-28T22:56:49.672Z,1.60
2023-01-28T22:59:59.994Z,1.72
2023-01-28T23:03:02.385Z,1.70
2023-01-28T23:06:08.407Z,1.63
2023-01-28T23:09:12.310Z,1.16
2023-01-28T23:12:15.536Z,0.91
2023-01-28T23:15:35.750Z,0.99
2023-01-28T23:18:57.311Z,0.87
2023-01-28T23:22:17.558Z,0.77
2023-01-28T23:25:19.277Z,0.84
2023-01-28T23:28:20.763Z,1.00
2023-01-28T23:31:22.380Z,1.00
2023-01-28T23:34:23.924Z,1.50
2023-01-28T23:37:25.391Z,0.97
2023-01-28T23:40:27.202Z,1.14
2023-01-28T23:43:28.736Z,1.36
2023-01-28T23:46:39.047Z,1.23
2023-01-28T23:49:41.526Z,1.39
2023-01-28T23:52:43.054Z,1.44
2023-01-28T23:55:44.535Z,1.55
2023-01-28T23:58:46.060Z,1.52
